createdAt,value
2017-12-04T15:16:29.954Z,92.70
2017-12-04T15:18:59.159Z,92.97
2017-12-04T15:21:28.367Z,92.66
2017-12-04T15:23:57.878Z,92.60
2017-12-04T15:26:27.115Z,92.34
2017-12-04T15:28:56.312Z,92.32
2017-12-04T15:31:25.519Z,92.18
2017-12-04T15:33:54.771Z,91.85
2017-12-04T15:36:24.796Z,91.51
2017-12-04T15:38:54.738Z,91.80
2017-12-04T15:41:23.943Z,91.73
2017-12-04T15:43:53.152Z,91.69
2017-12-04T15:46:22.383Z,91.92
2017-12-04T15:48:51.604Z,91.94
2017-12-04T15:51:21.681Z,91.77
2017-12-04T15:53:50.893Z,91.52
2017-12-04T15:56:20.185Z,91.54
2017-12-04T15:58:49.416Z,91.68
2017-12-04T16:01:19.524Z,91.86
2017-12-04T16:03:49.527Z,91.88
2017-12-04T16:06:18.742Z,91.83
2017-12-04T16:08:48.696Z,91.77
2017-12-04T16:11:17.905Z,91.72
2017-12-04T16:13:47.128Z,91.89
2017-12-04T16:16:16.344Z,91.86
2017-12-04T16:18:46.348Z,91.93
2017-12-04T16:21:15.597Z,91.74
2017-12-04T16:23:45.615Z,91.82
2017-12-04T16:26:14.859Z,92.00
2017-12-04T16:28:44.077Z,91.76
2017-12-04T16:31:13.325Z,91.60
2017-12-04T16:33:42.540Z,91.80
2017-12-04T16:36:11.785Z,91.68
2017-12-04T16:38:41.039Z,91.64
2017-12-04T16:41:10.235Z,91.76
2017-12-04T16:43:39.485Z,91.74
2017-12-04T16:46:08.697Z,91.69
2017-12-04T16:48:37.947Z,91.70
2017-12-04T16:51:07.944Z,91.74
2017-12-04T16:53:37.159Z,91.79
2017-12-04T16:56:06.383Z,91.91
2017-12-04T16:58:36.372Z,91.86
2017-12-04T17:01:05.638Z,92.13
2017-12-04T17:03:34.864Z,92.38
2017-12-04T17:06:04.835Z,92.39
2017-12-04T17:08:34.193Z,92.33
2017-12-04T17:11:03.391Z,92.32
2017-12-04T17:13:33.388Z,92.23
2017-12-04T17:16:02.913Z,92.19
2017-12-04T17:18:32.185Z,92.04
2017-12-04T17:21:01.450Z,91.86
2017-12-04T17:23:30.652Z,92.26
2017-12-04T17:25:59.887Z,92.39
2017-12-04T17:28:29.424Z,92.43
2017-12-04T17:30:58.687Z,92.53
2017-12-04T17:33:27.894Z,92.67
2017-12-04T17:35:57.122Z,92.94
2017-12-04T17:38:26.322Z,93.01
2017-12-04T17:40:55.559Z,93.18
2017-12-04T17:43:24.784Z,93.43
2017-12-04T17:45:54.818Z,93.51
2017-12-04T17:48:24.832Z,93.57
2017-12-04T17:50:54.893Z,93.64
2017-12-04T17:53:24.156Z,93.52
2017-12-04T17:55:54.164Z,93.42
2017-12-04T17:58:24.126Z,93.53
2017-12-04T18:00:53.398Z,93.66
2017-12-04T18:03:22.599Z,93.67
2017-12-04T18:05:51.806Z,93.77
2017-12-04T18:08:21.017Z,93.65
2017-12-04T18:10:50.221Z,93.73
2017-12-04T18:13:19.516Z,93.71
2017-12-04T18:15:48.746Z,93.77
2017-12-04T18:18:17.981Z,93.62
2017-12-04T18:20:47.177Z,94.10
2017-12-04T18:23:17.174Z,93.63
2017-12-04T18:25:47.171Z,93.83
2017-12-04T18:28:17.223Z,93.74
2017-12-04T18:30:46.458Z,93.68
2017-12-04T18:33:15.768Z,93.64
2017-12-04T18:35:44.959Z,93.80
2017-12-04T18:38:14.249Z,93.62
2017-12-04T18:40:43.458Z,93.54
2017-12-04T18:43:12.743Z,93.19
2017-12-04T18:45:41.940Z,93.10
2017-12-04T18:48:11.149Z,93.07
2017-12-04T18:50:40.377Z,93.00
2017-12-04T18:53:09.600Z,93.08
2017-12-04T18:55:38.821Z,93.05
2017-12-04T18:58:08.076Z,92.80
2017-12-04T19:00:37.326Z,92.82
2017-12-04T19:03:08.295Z,92.60
2017-12-04T19:05:37.586Z,92.83
2017-12-04T19:08:06.933Z,92.86
2017-12-04T19:10:36.971Z,93.00
2017-12-04T19:13:06.226Z,93.03
2017-12-04T19:15:36.179Z,93.03
2017-12-04T19:18:05.501Z,93.10
2017-12-04T19:20:34.683Z,93.10
2017-12-04T19:23:03.976Z,93.22
2017-12-04T19:25:33.251Z,93.12
2017-12-04T19:28:02.461Z,92.98
2017-12-04T19:30:31.683Z,92.77
2017-12-04T19:33:00.899Z,92.83
2017-12-04T19:35:30.171Z,92.79
2017-12-04T19:37:59.522Z,92.83
2017-12-04T19:40:29.579Z,92.64
2017-12-04T19:42:58.850Z,92.62
2017-12-04T19:45:28.136Z,92.52
2017-12-04T19:47:57.624Z,92.57
2017-12-04T19:50:26.825Z,92.57
2017-12-04T19:52:56.039Z,92.77
2017-12-04T19:55:26.411Z,92.59
2017-12-04T19:57:55.635Z,92.75
2017-12-04T20:00:25.869Z,92.79
2017-12-04T20:02:55.201Z,93.23
2017-12-04T20:05:24.434Z,93.23
2017-12-04T20:07:53.791Z,92.88
2017-12-04T20:10:23.859Z,92.59
2017-12-04T20:12:53.157Z,92.74
2017-12-04T20:15:22.462Z,92.56
2017-12-04T20:17:51.708Z,92.59
2017-12-04T20:20:20.990Z,92.63
2017-12-04T20:22:50.228Z,92.71
2017-12-04T20:25:19.529Z,92.58
2017-12-04T20:27:48.803Z,92.54
2017-12-04T20:30:17.992Z,92.59
2017-12-04T20:32:47.961Z,92.47
2017-12-04T20:35:17.212Z,92.36
2017-12-04T20:37:47.217Z,92.26
2017-12-04T20:40:16.459Z,92.62
2017-12-04T20:42:45.766Z,92.51
2017-12-04T20:45:15.035Z,92.34
2017-12-04T20:47:45.026Z,92.36
2017-12-04T20:50:14.298Z,92.29
2017-12-04T20:52:43.459Z,92.41
2017-12-04T20:55:12.752Z,92.50
2017-12-04T20:57:42.312Z,92.74
2017-12-04T21:00:11.582Z,92.83
2017-12-04T21:02:40.846Z,93.01
2017-12-04T21:05:10.115Z,92.66
2017-12-04T21:07:51.834Z,92.79
2017-12-04T21:10:39.503Z,92.76
2017-12-04T21:13:26.490Z,92.58
2017-12-04T21:16:26.623Z,92.76
2017-12-04T21:18:55.850Z,92.53
2017-12-04T21:21:25.165Z,92.55
2017-12-04T21:23:54.347Z,92.08
2017-12-04T21:26:23.607Z,92.11
2017-12-04T21:28:52.833Z,91.93
2017-12-04T21:31:22.152Z,92.04
2017-12-04T21:33:52.122Z,91.65
2017-12-04T21:36:22.129Z,91.70
2017-12-04T21:38:51.435Z,91.48
2017-12-04T21:41:20.683Z,91.34
2017-12-04T21:43:50.061Z,91.27
2017-12-04T21:46:19.242Z,91.42
2017-12-04T21:48:48.564Z,91.47
2017-12-04T21:51:17.785Z,91.18
2017-12-04T21:53:47.041Z,91.34
2017-12-04T21:56:16.260Z,91.44
2017-12-04T21:58:45.475Z,91.38
2017-12-04T22:01:14.849Z,91.35
2017-12-04T22:03:44.075Z,91.31
2017-12-04T22:06:13.310Z,91.43
2017-12-04T22:08:43.285Z,91.41
2017-12-04T22:11:12.526Z,91.46
2017-12-04T22:13:42.501Z,91.43
2017-12-04T22:16:11.784Z,91.59
2017-12-04T22:18:41.165Z,91.39
2017-12-04T22:21:11.233Z,91.38
2017-12-04T22:23:40.486Z,91.35
2017-12-04T22:26:09.703Z,91.38
2017-12-04T22:28:38.906Z,91.51
2017-12-04T22:31:08.152Z,91.40
2017-12-04T22:33:38.157Z,91.51
2017-12-04T22:36:08.111Z,91.34
2017-12-04T22:38:37.317Z,91.18
2017-12-04T22:41:06.528Z,91.22
2017-12-04T22:43:35.784Z,91.14
2017-12-04T22:46:04.972Z,90.93
2017-12-04T22:48:34.186Z,91.08
2017-12-04T22:51:03.670Z,90.86
2017-12-04T22:53:32.880Z,90.99
2017-12-04T22:56:02.230Z,91.20
2017-12-04T22:58:31.434Z,91.06
2017-12-04T23:01:00.654Z,90.99
2017-12-04T23:03:30.643Z,91.18
2017-12-04T23:05:59.973Z,91.21
2017-12-04T23:08:29.955Z,91.11
2017-12-04T23:10:59.231Z,90.98
2017-12-04T23:13:28.426Z,90.90
2017-12-04T23:15:57.638Z,90.67
2017-12-04T23:18:26.826Z,91.09
